Time;durP1;ratioP1;P1;durP2;ratioP2;P2;SDS_P1;SDS_P2;PMS_P1;PMS_P2;Temp;Humidity;BMP_temperature;BMP_pressure;BME280_temperature;BME280_humidity;BME280_pressure;Samples;Min_cycle;Max_cycle;Signal;HPM_P1;HPM_P2
2023/09/29 00:00:23;;;;;;;1.63;1.52;;;;;;;18.01;69.90;100875.03;5068714;28;20112;-86
2023/09/29 00:02:50;;;;;;;4.63;1.77;;;;;;;17.77;69.71;100836.56;5067418;28;20040;-86
2023/09/29 00:05:17;;;;;;;1.05;0.40;;;;;;;17.75;68.91;100823.34;5067819;28;20048;-85
2023/09/29 00:07:43;;;;;;;4.68;2.38;;;;;;;17.83;68.40;100831.16;5068212;28;20079;-84
2023/09/29 00:10:13;;;;;;;1.23;1.13;;;;;;;17.90;69.04;100852.22;5054391;28;20799;-86
2023/09/29 00:12:40;;;;;;;1.00;0.75;;;;;;;17.99;69.64;100875.03;5048359;28;20029;-86
2023/09/29 00:15:06;;;;;;;6.43;1.65;;;;;;;17.88;71.30;100896.50;5046934;28;20753;-78
2023/09/29 00:17:32;;;;;;;0.22;0.22;;;;;;;17.97;71.07;100902.53;5061700;28;20048;-84
2023/09/29 00:19:58;;;;;;;0.43;0.30;;;;;;;17.48;70.57;100809.78;5073202;28;20039;-86
2023/09/29 00:22:24;;;;;;;0.77;0.60;;;;;;;17.45;69.82;100806.34;5062694;28;20078;-81
2023/09/29 00:24:49;;;;;;;0.32;0.32;;;;;;;17.77;69.33;100855.16;5044551;28;20528;-86
2023/09/29 00:27:15;;;;;;;1.85;0.77;;;;;;;17.67;68.17;100835.91;5066492;28;20033;-88
2023/09/29 00:29:40;;;;;;;0.68;0.60;;;;;;;17.50;68.12;100809.75;5063974;28;20064;-87
2023/09/29 00:32:06;;;;;;;1.10;1.02;;;;;;;17.91;67.74;100877.88;5048735;28;20102;-86
2023/09/29 00:34:32;;;;;;;1.08;0.68;;;;;;;17.98;66.65;100873.31;5059633;28;20044;-87
2023/09/29 00:36:57;;;;;;;1.23;0.98;;;;;;;17.98;66.69;100891.00;5065992;28;20053;-87
2023/09/29 00:39:22;;;;;;;0.40;0.40;;;;;;;17.59;66.08;100822.81;5054450;28;20036;-88
2023/09/29 00:41:49;;;;;;;0.70;0.60;;;;;;;17.62;66.48;100824.53;5060465;28;20449;-85
2023/09/29 00:44:16;;;;;;;3.25;1.05;;;;;;;17.97;67.05;100900.75;5043720;28;20043;-82
2023/09/29 00:46:42;;;;;;;0.40;0.40;;;;;;;17.96;66.53;100887.50;5066538;28;20107;-84
2023/09/29 00:49:08;;;;;;;0.52;0.40;;;;;;;18.13;66.73;100915.44;5063593;28;20041;-83
2023/09/29 00:51:34;;;;;;;1.08;0.98;;;;;;;17.04;67.28;100748.00;5057108;28;20067;-84
2023/09/29 00:54:02;;;;;;;1.55;1.45;;;;;;;18.08;66.62;100913.81;5061630;28;20020;-84
2023/09/29 00:56:28;;;;;;;0.68;0.45;;;;;;;18.08;65.94;100913.81;5059380;28;20079;-83
2023/09/29 00:58:55;;;;;;;1.38;1.25;;;;;;;18.13;65.01;100901.28;5058331;28;20177;-84
2023/09/29 01:01:23;;;;;;;2.53;1.52;;;;;;;18.23;64.37;100924.06;5053885;28;20133;-86
2023/09/29 01:03:50;;;;;;;0.55;0.55;;;;;;;18.12;64.42;100902.16;5065561;28;20039;-83
2023/09/29 01:06:16;;;;;;;0.52;0.52;;;;;;;18.18;64.45;100903.84;5051301;28;20033;-81
2023/09/29 01:08:43;;;;;;;0.55;0.35;;;;;;;17.75;63.72;100822.47;5061553;28;20044;-80
2023/09/29 01:11:08;;;;;;;0.57;0.57;;;;;;;17.60;63.44;100797.16;5059224;28;20200;-81
2023/09/29 01:13:40;;;;;;;0.75;0.75;;;;;;;17.68;62.83;100812.00;5055219;28;20416;-80
2023/09/29 01:16:06;;;;;;;0.50;0.47;;;;;;;17.78;62.76;100835.69;5041122;28;20605;-80
2023/09/29 01:18:34;;;;;;;1.40;1.08;;;;;;;18.26;62.74;100916.03;5056502;28;20036;-79
2023/09/29 01:21:01;;;;;;;3.28;1.00;;;;;;;18.11;63.32;100903.09;5061379;28;20035;-78
2023/09/29 01:23:32;;;;;;;0.93;0.88;;;;;;;18.07;64.25;100904.94;5055265;28;20045;-81
2023/09/29 01:25:57;;;;;;;0.68;0.68;;;;;;;18.11;65.10;100919.03;5055516;28;20597;-80
2023/09/29 01:28:24;;;;;;;0.68;0.57;;;;;;;17.49;65.29;100810.69;5062141;28;20045;-80
2023/09/29 01:30:53;;;;;;;0.75;0.65;;;;;;;18.00;66.60;100916.59;5046942;28;20047;-79
2023/09/29 01:33:21;;;;;;;1.08;0.98;;;;;;;17.83;67.17;100882.47;5062050;28;20025;-81
2023/09/29 01:35:49;;;;;;;1.08;0.55;;;;;;;17.50;68.14;100842.47;5063017;28;20498;-80
2023/09/29 01:38:14;;;;;;;0.90;0.80;;;;;;;17.81;68.23;100894.91;5063758;28;20407;-79
2023/09/29 01:40:40;;;;;;;0.45;0.45;;;;;;;17.39;67.97;100830.34;5067101;28;20076;-79
2023/09/29 01:43:06;;;;;;;3.55;1.17;;;;;;;17.98;68.57;100925.53;5069167;28;20052;-81
2023/09/29 01:45:32;;;;;;;0.68;0.68;;;;;;;17.81;68.19;100880.78;5069755;28;20066;-80
2023/09/29 01:47:59;;;;;;;0.50;0.50;;;;;;;17.67;67.48;100835.91;5064981;28;20048;-81
2023/09/29 01:50:24;;;;;;;1.13;1.02;;;;;;;17.52;72.48;100827.41;5047069;28;20052;-80
2023/09/29 01:52:50;;;;;;;1.83;1.70;;;;;;;17.95;72.37;100918.50;5065716;28;20060;-80
2023/09/29 01:55:22;;;;;;;0.68;0.68;;;;;;;17.19;78.65;100826.34;5056477;28;20052;-79
2023/09/29 01:57:48;;;;;;;1.38;1.02;;;;;;;17.29;79.94;100842.94;5064508;28;20087;-81
2023/09/29 02:00:19;;;;;;;0.98;0.93;;;;;;;17.23;80.92;100825.38;5065387;28;20040;-80
2023/09/29 02:02:46;;;;;;;2.60;0.65;;;;;;;17.22;82.45;100830.72;5064237;28;20127;-80
2023/09/29 02:05:13;;;;;;;0.77;0.50;;;;;;;17.20;83.16;100846.63;5069091;28;20135;-81
2023/09/29 02:07:39;;;;;;;2.30;2.13;;;;;;;17.29;81.33;100872.09;5045798;28;20571;-80
2023/09/29 02:10:07;;;;;;;1.75;1.65;;;;;;;17.29;82.27;100904.81;5061708;28;20113;-81
2023/09/29 02:12:33;;;;;;;1.25;1.15;;;;;;;17.40;82.48;100894.00;5068746;28;20029;-80
2023/09/29 02:14:59;;;;;;;1.70;1.60;;;;;;;17.19;74.41;100833.44;5068864;28;20036;-79
2023/09/29 02:17:25;;;;;;;1.15;1.05;;;;;;;17.14;73.65;100814.06;5067176;28;20044;-80
2023/09/29 02:19:52;;;;;;;1.25;1.00;;;;;;;17.57;78.27;100906.91;5068226;28;20111;-81
2023/09/29 02:22:19;;;;;;;0.40;0.30;;;;;;;17.68;70.87;100893.41;5055614;28;20045;-82
2023/09/29 02:24:44;;;;;;;1.50;0.98;;;;;;;17.69;69.66;100905.78;5063872;28;20044;-81
2023/09/29 02:27:10;;;;;;;0.30;0.30;;;;;;;17.81;69.00;100921.47;5060573;28;20041;-82
2023/09/29 02:29:35;;;;;;;2.38;1.40;;;;;;;17.82;68.15;100912.59;5064366;28;20528;-82
2023/09/29 02:32:01;;;;;;;2.58;1.75;;;;;;;17.72;67.37;100898.63;5068381;28;20032;-82
2023/09/29 02:34:28;;;;;;;0.88;0.35;;;;;;;17.73;66.99;100896.84;5067499;28;20574;-82
2023/09/29 02:36:54;;;;;;;2.83;1.52;;;;;;;17.01;67.26;100806.38;5058482;28;20045;-80
2023/09/29 02:39:20;;;;;;;4.38;2.58;;;;;;;17.71;67.76;100930.50;5069205;28;20041;-82
2023/09/29 02:41:45;;;;;;;1.38;1.25;;;;;;;17.08;67.63;100830.97;5068381;28;20036;-82
2023/09/29 02:44:11;;;;;;;2.58;1.65;;;;;;;17.48;67.99;100905.31;5067941;28;20037;-82
2023/09/29 02:46:36;;;;;;;1.25;0.95;;;;;;;17.22;67.95;100849.28;5069149;28;20141;-82
2023/09/29 02:49:03;;;;;;;0.38;0.30;;;;;;;17.50;68.12;100903.50;5061570;28;20044;-81
2023/09/29 02:51:29;;;;;;;0.43;0.38;;;;;;;17.02;67.85;100815.19;5067056;28;20556;-81
2023/09/29 02:53:55;;;;;;;6.75;1.58;;;;;;;17.32;68.08;100869.38;5067821;28;20055;-82
2023/09/29 02:56:23;;;;;;;0.82;0.75;;;;;;;17.66;68.06;100924.41;5061921;28;20122;-81
2023/09/29 02:58:49;;;;;;;1.45;1.27;;;;;;;17.26;68.34;100866.88;5064308;28;20177;-82
2023/09/29 03:01:18;;;;;;;2.03;1.33;;;;;;;17.05;68.24;100823.09;5068019;28;20070;-82
2023/09/29 03:03:47;;;;;;;0.77;0.65;;;;;;;17.54;68.31;100914.94;5064350;28;20059;-82
2023/09/29 03:06:18;;;;;;;1.42;1.30;;;;;;;17.60;68.38;100930.72;5059994;28;20284;-81
2023/09/29 03:08:44;;;;;;;0.38;0.38;;;;;;;17.45;67.73;100892.13;5067525;28;20044;-81
2023/09/29 03:11:12;;;;;;;1.27;1.17;;;;;;;17.73;67.62;100936.66;5067775;28;20382;-82
2023/09/29 03:13:38;;;;;;;1.60;1.42;;;;;;;17.54;68.15;100906.13;5062673;28;20091;-81
2023/09/29 03:16:07;;;;;;;0.50;0.40;;;;;;;17.47;67.95;100892.09;5067535;28;20044;-82
2023/09/29 03:18:34;;;;;;;2.17;0.73;;;;;;;17.44;68.33;100905.41;5064304;28;20025;-80
2023/09/29 03:21:04;;;;;;;0.75;0.70;;;;;;;17.73;68.34;100932.22;5068175;28;20028;-81
2023/09/29 03:23:30;;;;;;;1.55;1.45;;;;;;;17.33;67.23;100841.09;5066663;28;20041;-81
2023/09/29 03:25:56;;;;;;;2.50;2.30;;;;;;;17.46;71.61;100883.22;5057633;28;20052;-80
2023/09/29 03:28:21;;;;;;;0.98;0.55;;;;;;;17.67;76.48;100932.34;5062969;28;20044;-80
2023/09/29 03:30:48;;;;;;;0.63;0.63;;;;;;;16.90;79.48;100821.59;5065512;28;20102;-81
2023/09/29 03:33:13;;;;;;;1.52;1.38;;;;;;;17.29;80.99;100894.19;5062240;28;20031;-82
2023/09/29 03:35:40;;;;;;;1.65;0.52;;;;;;;16.94;77.44;100825.09;5067040;28;20056;-82
2023/09/29 03:38:06;;;;;;;0.73;0.68;;;;;;;17.72;74.97;100948.16;5067529;28;20044;-82
2023/09/29 03:40:31;;;;;;;1.75;1.58;;;;;;;16.65;82.76;100792.03;5067034;28;20075;-82
2023/09/29 03:42:57;;;;;;;2.05;1.00;;;;;;;16.87;84.96;100826.97;5066772;28;20036;-81
2023/09/29 03:45:23;;;;;;;0.68;0.68;;;;;;;16.73;86.67;100843.09;5065243;28;20047;-81
2023/09/29 03:47:48;;;;;;;1.02;0.57;;;;;;;16.74;89.22;100843.97;5044317;28;20055;-82
2023/09/29 03:50:14;;;;;;;0.50;0.43;;;;;;;16.70;89.78;100844.94;5065039;28;20044;-83
2023/09/29 03:52:42;;;;;;;1.77;1.67;;;;;;;17.30;91.44;100942.81;5066587;28;20508;-81
2023/09/29 03:55:09;;;;;;;1.10;0.60;;;;;;;17.23;92.95;100946.47;5066623;28;20055;-80
2023/09/29 03:57:37;;;;;;;0.77;0.32;;;;;;;16.31;96.35;100815.59;5062644;28;20028;-80
2023/09/29 04:00:07;;;;;;;0.45;0.38;;;;;;;16.47;95.11;100843.56;5062606;28;20056;-80
2023/09/29 04:02:33;;;;;;;6.47;1.27;;;;;;;17.01;84.17;100908.91;5063044;28;20033;-80
2023/09/29 04:04:59;;;;;;;0.52;0.52;;;;;;;17.35;81.66;100945.38;5066407;28;20036;-81
2023/09/29 04:07:24;;;;;;;1.42;1.33;;;;;;;17.47;84.18;100942.50;5066177;28;20063;-80
2023/09/29 04:09:50;;;;;;;0.80;0.80;;;;;;;16.99;78.77;100897.44;5064827;28;20052;-81
2023/09/29 04:12:15;;;;;;;2.15;1.60;;;;;;;16.72;78.00;100845.81;5065281;28;20028;-83
2023/09/29 04:14:40;;;;;;;0.40;0.40;;;;;;;17.21;76.61;100921.78;5059611;28;20156;-81
2023/09/29 04:17:06;;;;;;;1.23;1.13;;;;;;;17.36;75.96;100940.06;5042020;28;20040;-82
2023/09/29 04:19:32;;;;;;;1.60;1.50;;;;;;;17.24;76.41;100905.81;5066249;28;20040;-83
2023/09/29 04:21:57;;;;;;;0.40;0.40;;;;;;;17.47;75.55;100945.16;5063755;28;20059;-83
2023/09/29 04:24:23;;;;;;;2.33;1.27;;;;;;;17.36;75.82;100926.78;5059166;28;20029;-80
2023/09/29 04:26:48;;;;;;;0.40;0.40;;;;;;;16.88;76.15;100866.72;5061283;28;20147;-82
2023/09/29 04:29:14;;;;;;;2.55;1.50;;;;;;;16.97;75.49;100860.34;5063205;28;20480;-81
2023/09/29 04:31:40;;;;;;;3.20;2.90;;;;;;;17.25;74.63;100896.94;5065209;28;20408;-81
2023/09/29 04:34:05;;;;;;;0.40;0.40;;;;;;;17.42;75.79;100952.31;5065754;28;20392;-80
2023/09/29 04:36:31;;;;;;;1.77;1.40;;;;;;;17.38;76.24;100937.38;5047535;28;20039;-81
2023/09/29 04:38:56;;;;;;;0.82;0.82;;;;;;;16.95;75.07;100834.78;5065267;28;20560;-80
2023/09/29 04:41:22;;;;;;;1.30;1.17;;;;;;;17.13;74.43;100881.28;5062884;28;20362;-80
2023/09/29 04:43:47;;;;;;;0.73;0.65;;;;;;;17.43;75.42;100928.41;5065357;28;20041;-81
2023/09/29 04:46:15;;;;;;;0.93;0.93;;;;;;;17.59;75.36;100954.66;5062755;28;20064;-80
2023/09/29 04:48:40;;;;;;;0.55;0.40;;;;;;;17.45;74.80;100918.66;5043963;28;20090;-81
2023/09/29 04:51:06;;;;;;;1.30;1.20;;;;;;;17.59;75.07;100952.00;5065054;28;20127;-80
2023/09/29 04:53:32;;;;;;;2.63;2.15;;;;;;;17.21;74.98;100903.22;5065946;28;20083;-81
2023/09/29 04:56:00;;;;;;;1.42;1.33;;;;;;;17.56;74.80;100937.00;5059532;28;21871;-83
2023/09/29 04:58:26;;;;;;;1.05;0.70;;;;;;;17.26;74.48;100875.69;5054639;28;20052;-82
2023/09/29 05:00:52;;;;;;;0.75;0.75;;;;;;;17.77;74.17;100969.31;5059507;28;20051;-82
2023/09/29 05:03:18;;;;;;;2.25;1.85;;;;;;;17.18;74.05;100859.06;5063862;28;20108;-82
2023/09/29 05:05:46;;;;;;;1.20;1.05;;;;;;;17.17;74.27;100861.75;5064055;28;20131;-82
2023/09/29 05:08:11;;;;;;;3.60;1.20;;;;;;;17.85;74.33;100967.41;5064770;28;20064;-80
2023/09/29 05:10:37;;;;;;;2.30;2.10;;;;;;;17.92;73.63;100972.56;5053486;28;20422;-83
2023/09/29 05:13:02;;;;;;;1.10;0.98;;;;;;;17.39;73.26;100870.13;5058323;28;20036;-81
2023/09/29 05:15:28;;;;;;;1.35;0.95;;;;;;;17.90;73.15;100966.41;5064714;28;20036;-81
2023/09/29 05:17:54;;;;;;;0.20;0.20;;;;;;;17.80;73.98;100940.06;5056941;28;20139;-80
2023/09/29 05:20:19;;;;;;;1.23;1.13;;;;;;;17.81;74.13;100937.38;5062154;28;20139;-81
2023/09/29 05:22:45;;;;;;;1.45;1.35;;;;;;;18.07;72.78;100949.22;5065204;28;20431;-81
2023/09/29 05:25:11;;;;;;;1.00;1.00;;;;;;;18.03;72.30;100948.44;5050532;28;20037;-82
2023/09/29 05:27:36;;;;;;;2.42;0.82;;;;;;;18.28;71.69;100975.28;5064175;28;20518;-79
2023/09/29 05:30:02;;;;;;;1.45;1.33;;;;;;;18.12;71.87;100944.66;5063940;28;20020;-82
2023/09/29 05:32:28;;;;;;;1.20;0.93;;;;;;;17.98;70.98;100894.56;5062800;28;20711;-82
2023/09/29 05:34:53;;;;;;;1.75;1.40;;;;;;;17.80;69.76;100845.34;5061247;28;20068;-81
2023/09/29 05:37:19;;;;;;;1.70;1.52;;;;;;;17.87;69.39;100840.81;5063646;28;20125;-80
2023/09/29 05:39:44;;;;;;;1.75;1.35;;;;;;;18.64;68.42;100961.19;5062532;28;20032;-79
2023/09/29 05:42:11;;;;;;;2.53;1.35;;;;;;;18.23;67.31;100868.25;5068128;28;20099;-83
2023/09/29 05:44:36;;;;;;;1.65;1.55;;;;;;;18.72;66.54;100933.47;5063572;28;20068;-83
2023/09/29 05:47:02;;;;;;;0.63;0.63;;;;;;;18.41;65.79;100872.25;5060488;28;20041;-83
2023/09/29 05:49:28;;;;;;;0.75;0.70;;;;;;;18.55;65.21;100874.56;5062465;28;20045;-81
2023/09/29 05:51:54;;;;;;;1.15;1.05;;;;;;;19.23;64.61;100969.44;5062977;28;20123;-81
2023/09/29 05:54:20;;;;;;;2.17;1.10;;;;;;;19.31;63.80;100967.44;5045682;28;20454;-79
2023/09/29 05:56:45;;;;;;;0.82;0.70;;;;;;;19.00;62.94;100878.75;5055760;28;20049;-83
2023/09/29 05:59:12;;;;;;;1.65;1.42;;;;;;;19.50;62.45;100938.53;5064821;28;20405;-83
2023/09/29 06:01:37;;;;;;;0.85;0.82;;;;;;;19.44;61.83;100921.88;5059169;28;20049;-82
2023/09/29 06:04:03;;;;;;;3.78;1.73;;;;;;;19.25;61.58;100877.16;5064494;28;20041;-82
2023/09/29 06:06:28;;;;;;;2.03;1.85;;;;;;;19.43;61.30;100880.19;5064338;28;20024;-83
2023/09/29 06:08:54;;;;;;;2.92;1.38;;;;;;;20.10;61.20;100957.22;5062060;28;20055;-82
2023/09/29 06:11:19;;;;;;;2.65;2.05;;;;;;;19.76;59.97;100894.31;5064617;28;20558;-81
2023/09/29 06:13:46;;;;;;;1.73;1.25;;;;;;;19.84;60.05;100897.63;5064387;28;20043;-83
2023/09/29 06:16:11;;;;;;;0.90;0.85;;;;;;;19.82;58.88;100878.16;5060674;28;20045;-83
2023/09/29 06:18:38;;;;;;;1.23;1.13;;;;;;;20.27;58.53;100914.91;5064003;28;20090;-82
2023/09/29 06:21:04;;;;;;;1.02;0.95;;;;;;;20.73;57.47;100972.13;5053934;28;20029;-82
2023/09/29 06:23:29;;;;;;;1.17;1.05;;;;;;;20.24;56.81;100870.59;5034775;28;20735;-83
2023/09/29 06:25:58;;;;;;;1.00;0.82;;;;;;;20.43;56.36;100878.84;5061870;28;20056;-83
2023/09/29 06:28:26;;;;;;;1.50;1.40;;;;;;;20.54;55.75;100885.63;5066486;28;20041;-80
2023/09/29 06:30:53;;;;;;;1.30;1.20;;;;;;;21.16;55.27;100978.66;5059127;28;20118;-80
2023/09/29 06:33:19;;;;;;;0.80;0.80;;;;;;;20.80;55.17;100901.63;5066176;28;20036;-81
2023/09/29 06:35:45;;;;;;;1.50;1.08;;;;;;;20.74;54.82;100880.50;5064368;28;20520;-81
2023/09/29 06:38:11;;;;;;;2.70;2.50;;;;;;;21.34;53.86;100969.13;5067532;28;20036;-83
2023/09/29 06:40:36;;;;;;;1.40;1.08;;;;;;;21.46;54.07;100975.84;5068162;28;20072;-83
2023/09/29 06:43:02;;;;;;;1.73;1.10;;;;;;;21.60;53.63;100973.53;5063020;28;20037;-82
2023/09/29 06:45:30;;;;;;;11.18;1.95;;;;;;;21.62;53.07;100976.19;5068175;28;20077;-82
2023/09/29 06:47:55;;;;;;;2.28;1.80;;;;;;;21.68;53.23;100983.94;5064844;28;20146;-82
2023/09/29 06:50:21;;;;;;;4.18;1.38;;;;;;;21.54;53.17;100938.19;5057724;28;20049;-80
2023/09/29 06:52:47;;;;;;;0.20;0.20;;;;;;;21.65;52.48;100936.84;5062648;28;20766;-81
2023/09/29 06:55:13;;;;;;;1.48;1.33;;;;;;;21.37;52.15;100880.03;5073885;28;20037;-80
2023/09/29 06:57:39;;;;;;;1.90;1.25;;;;;;;21.99;51.91;100981.00;5058393;28;20086;-80
2023/09/29 07:00:08;;;;;;;1.90;1.67;;;;;;;21.82;51.76;100938.00;5067922;28;20493;-81
2023/09/29 07:02:34;;;;;;;1.58;0.70;;;;;;;21.86;51.74;100951.19;5035405;28;20053;-82
2023/09/29 07:04:59;;;;;;;0.30;0.30;;;;;;;21.84;52.39;100952.19;5054815;28;20048;-81
2023/09/29 07:07:25;;;;;;;0.75;0.52;;;;;;;21.86;52.31;100943.19;5059998;28;20039;-81
2023/09/29 07:09:50;;;;;;;1.25;1.17;;;;;;;21.82;51.87;100917.53;5055939;28;20024;-82
2023/09/29 07:12:16;;;;;;;1.30;0.95;;;;;;;21.81;51.81;100891.72;5059608;28;20029;-80
2023/09/29 07:14:41;;;;;;;2.13;1.23;;;;;;;21.85;51.42;100866.63;5045718;28;20095;-80
2023/09/29 07:17:07;;;;;;;1.98;1.85;;;;;;;22.45;51.24;100960.53;5062683;28;20060;-80
2023/09/29 07:19:34;;;;;;;14.38;1.48;;;;;;;22.71;50.62;100979.94;5061236;28;20049;-81
2023/09/29 07:22:01;;;;;;;0.20;0.20;;;;;;;22.80;50.27;100973.34;5062852;28;20037;-81
2023/09/29 07:24:27;;;;;;;0.75;0.63;;;;;;;22.79;50.36;100955.56;5047707;28;20467;-81
2023/09/29 07:26:52;;;;;;;1.95;1.40;;;;;;;22.77;48.94;100937.75;5056907;28;20132;-82
2023/09/29 07:29:18;;;;;;;2.45;1.50;;;;;;;23.16;48.52;100987.03;5060632;28;20056;-81
2023/09/29 07:31:47;;;;;;;3.90;3.05;;;;;;;23.16;48.06;100985.22;5055945;28;20493;-80
2023/09/29 07:34:15;;;;;;;1.48;1.13;;;;;;;23.18;48.13;100950.34;5054651;28;20052;-83
2023/09/29 07:36:45;;;;;;;1.23;1.13;;;;;;;23.22;47.73;100973.34;5060565;28;20040;-84
2023/09/29 07:39:15;;;;;;;6.85;3.20;;;;;;;23.30;47.83;100965.00;5062568;28;20102;-76
2023/09/29 07:41:41;;;;;;;1.52;1.33;;;;;;;23.13;48.15;100982.69;5061594;28;20145;-76
2023/09/29 07:44:11;;;;;;;1.23;0.50;;;;;;;23.37;47.74;100998.59;5057641;28;20071;-75
2023/09/29 07:46:38;;;;;;;2.60;2.00;;;;;;;23.54;48.39;100988.00;5048730;28;22450;-75
2023/09/29 07:49:03;;;;;;;0.63;0.60;;;;;;;23.11;48.33;100930.13;5052025;28;20519;-76
2023/09/29 07:51:29;;;;;;;2.13;1.23;;;;;;;23.60;47.90;100995.78;5060267;28;20032;-76
2023/09/29 07:53:56;;;;;;;3.33;1.58;;;;;;;22.91;47.59;100893.47;5065367;28;20040;-75
2023/09/29 07:56:22;;;;;;;0.20;0.20;;;;;;;23.20;49.02;100918.13;5036782;28;20131;-75
2023/09/29 07:58:47;;;;;;;0.55;0.50;;;;;;;23.55;47.14;100986.19;5053167;28;20141;-75
2023/09/29 08:01:13;;;;;;;1.45;1.25;;;;;;;23.67;47.20;100996.38;5059491;28;20048;-75
2023/09/29 08:03:38;;;;;;;1.58;1.02;;;;;;;23.60;47.55;100970.81;5047733;28;20097;-76
2023/09/29 08:06:04;;;;;;;2.35;1.52;;;;;;;23.84;47.60;100990.28;5057029;28;20870;-76
2023/09/29 08:08:30;;;;;;;1.70;1.38;;;;;;;23.77;47.20;100964.69;5059590;28;20040;-75
2023/09/29 08:10:55;;;;;;;1.98;1.65;;;;;;;23.82;47.72;100959.97;5052764;28;20511;-75
2023/09/29 08:13:23;;;;;;;2.60;2.20;;;;;;;23.68;46.56;100944.50;5057230;28;20064;-76
2023/09/29 08:15:49;;;;;;;0.22;0.22;;;;;;;23.82;54.82;100954.63;5051048;28;20112;-75
2023/09/29 08:18:16;;;;;;;2.05;1.85;;;;;;;23.92;46.36;100995.28;5062886;28;20422;-76
2023/09/29 08:20:42;;;;;;;1.27;1.17;;;;;;;23.93;50.34;100971.09;5036992;28;20131;-76
2023/09/29 08:23:08;;;;;;;1.17;1.10;;;;;;;23.90;46.96;100973.88;5053815;28;20047;-75
2023/09/29 08:25:33;;;;;;;1.30;1.13;;;;;;;23.74;47.70;100952.31;5055445;28;20424;-75
2023/09/29 08:28:02;;;;;;;0.88;0.77;;;;;;;23.59;46.39;100913.63;5059699;28;20076;-74
2023/09/29 08:30:28;;;;;;;1.08;0.95;;;;;;;24.07;47.98;100959.72;5057692;28;20107;-75
2023/09/29 08:32:53;;;;;;;0.50;0.50;;;;;;;23.64;46.25;100893.81;5051650;28;20159;-73
2023/09/29 08:35:19;;;;;;;5.53;2.15;;;;;;;24.14;48.60;100974.56;5040002;28;20049;-76
2023/09/29 08:37:45;;;;;;;1.00;0.90;;;;;;;23.80;46.05;100893.03;5058128;28;20193;-75
2023/09/29 08:40:16;;;;;;;1.75;1.65;;;;;;;23.79;45.59;100898.50;5051965;28;20165;-76
2023/09/29 08:42:46;;;;;;;0.65;0.63;;;;;;;24.19;46.89;100937.66;5056648;28;20036;-76
2023/09/29 08:45:11;;;;;;;1.50;1.40;;;;;;;24.30;46.67;100968.44;5061061;28;20115;-77
2023/09/29 08:47:38;;;;;;;0.73;0.73;;;;;;;24.06;45.82;100901.66;5055311;28;20159;-75
2023/09/29 08:50:04;;;;;;;1.65;1.48;;;;;;;24.37;45.86;100941.28;5056746;28;20125;-74
2023/09/29 08:52:32;;;;;;;3.45;2.17;;;;;;;24.41;45.16;100958.06;5059579;28;20139;-74
2023/09/29 08:54:58;;;;;;;3.13;2.72;;;;;;;24.54;44.82;100975.34;5054897;28;20079;-75
2023/09/29 08:57:25;;;;;;;2.22;1.33;;;;;;;24.19;47.52;100900.13;5061968;28;20123;-77
2023/09/29 08:59:54;;;;;;;1.48;1.02;;;;;;;24.62;45.71;100975.81;5055641;28;20044;-74
2023/09/29 09:02:21;;;;;;;1.63;1.52;;;;;;;24.66;44.02;100944.34;5061494;28;20409;-76
2023/09/29 09:04:47;;;;;;;3.75;2.28;;;;;;;24.30;44.21;100871.88;5048749;28;20840;-76
2023/09/29 09:07:14;;;;;;;2.83;2.05;;;;;;;24.29;47.54;100862.13;5036764;28;20048;-74
2023/09/29 09:09:49;;;;;;;0.73;0.73;;;;;;;24.67;43.50;100867.38;5052068;28;20032;-74
2023/09/29 09:12:15;;;;;;;5.03;1.95;;;;;;;24.76;43.16;100870.44;5053731;28;20029;-76
2023/09/29 09:14:41;;;;;;;0.63;0.52;;;;;;;25.15;42.57;100932.91;5062424;28;20047;-75
2023/09/29 09:17:09;;;;;;;2.47;2.15;;;;;;;24.70;45.96;100875.25;5057613;28;20056;-77
2023/09/29 09:19:51;;;;;;;1.85;1.73;;;;;;;24.64;46.08;100871.09;5054968;28;20053;-75
2023/09/29 09:22:18;;;;;;;1.20;1.10;;;;;;;25.40;42.01;100953.97;5055658;28;20131;-76
2023/09/29 09:24:44;;;;;;;3.08;2.22;;;;;;;24.82;41.73;100867.47;5053419;28;20036;-76
2023/09/29 09:27:11;;;;;;;2.65;1.67;;;;;;;25.49;41.88;100948.13;5059477;28;20043;-76
2023/09/29 09:29:44;;;;;;;1.35;1.20;;;;;;;25.42;43.47;100961.00;5059300;28;20048;-76
2023/09/29 09:32:10;;;;;;;0.82;0.70;;;;;;;25.01;41.83;100861.13;5056017;28;20052;-75
2023/09/29 09:34:37;;;;;;;5.43;1.63;;;;;;;25.03;41.82;100873.50;5058495;28;20052;-75
2023/09/29 09:37:05;;;;;;;1.15;1.05;;;;;;;25.64;42.84;100955.34;5038693;28;20049;-76
2023/09/29 09:39:33;;;;;;;3.55;2.75;;;;;;;25.16;40.93;100862.13;5057843;28;20123;-75
2023/09/29 09:41:59;;;;;;;0.77;0.63;;;;;;;25.71;41.43;100953.22;5054917;28;20047;-75
2023/09/29 09:44:26;;;;;;;1.13;1.02;;;;;;;25.82;41.17;100955.28;5047349;28;20407;-76
2023/09/29 09:47:10;;;;;;;0.65;0.65;;;;;;;25.81;41.17;100945.50;5053892;28;20045;-87
2023/09/29 09:49:41;;;;;;;0.68;0.68;;;;;;;25.97;40.87;100937.50;5049439;28;20044;-82
2023/09/29 09:52:15;;;;;;;5.05;1.20;;;;;;;26.00;40.69;100946.25;5054380;28;20048;-74
2023/09/29 09:54:53;;;;;;;3.72;1.65;;;;;;;25.53;40.91;100863.69;5057024;28;20384;-76
2023/09/29 09:57:27;;;;;;;5.70;2.90;;;;;;;26.02;41.25;100921.97;5058785;28;20043;-77
2023/09/29 09:59:54;;;;;;;0.52;0.50;;;;;;;25.59;40.76;100867.84;5051049;28;20990;-76
2023/09/29 10:02:21;;;;;;;1.88;1.75;;;;;;;26.03;40.75;100921.00;5058846;28;20107;-74
2023/09/29 10:04:49;;;;;;;5.28;3.45;;;;;;;25.79;40.57;100854.16;5057478;28;20113;-75
2023/09/29 10:07:17;;;;;;;1.35;1.23;;;;;;;25.98;40.30;100918.56;5058676;28;20548;-78
2023/09/29 10:09:48;;;;;;;1.30;1.23;;;;;;;25.85;40.74;100850.28;5065252;28;20124;-77
2023/09/29 10:12:28;;;;;;;9.27;2.00;;;;;;;26.37;40.10;100916.38;5059156;28;20781;-79
2023/09/29 10:14:55;;;;;;;1.50;1.40;;;;;;;25.88;40.05;100840.22;5060055;28;20045;-76
2023/09/29 10:17:22;;;;;;;3.63;1.10;;;;;;;26.31;39.93;100936.44;5056274;28;20045;-82
2023/09/29 10:19:51;;;;;;;2.03;1.77;;;;;;;26.11;39.90;100852.38;5054442;28;20053;-83
2023/09/29 10:22:24;;;;;;;1.85;1.20;;;;;;;26.19;39.64;100859.97;5054137;28;20044;-83
2023/09/29 10:24:56;;;;;;;1.17;1.10;;;;;;;26.28;39.36;100837.06;5058651;28;20032;-84
2023/09/29 10:27:31;;;;;;;10.73;1.17;;;;;;;26.61;38.92;100862.97;5056308;28;20495;-84
2023/09/29 10:30:17;;;;;;;1.92;1.58;;;;;;;26.88;39.22;100895.44;5064901;28;20421;-85
2023/09/29 10:32:48;;;;;;;4.93;2.70;;;;;;;27.23;38.67;100896.00;5038823;28;20152;-83
2023/09/29 10:35:19;;;;;;;2.28;2.00;;;;;;;26.97;38.47;100911.03;5050090;28;20052;-84
2023/09/29 10:37:49;;;;;;;0.60;0.60;;;;;;;26.95;38.75;100913.81;5055854;28;20092;-84
2023/09/29 10:40:20;;;;;;;1.33;1.05;;;;;;;26.98;38.77;100901.13;5037981;28;20571;-84
2023/09/29 10:42:48;;;;;;;0.70;0.68;;;;;;;27.02;38.91;100865.84;5039966;28;20024;-83
2023/09/29 10:45:31;;;;;;;1.73;1.45;;;;;;;26.65;38.46;100790.00;5042481;28;20028;-83
2023/09/29 10:48:01;;;;;;;1.38;1.27;;;;;;;26.84;38.54;100815.78;5055101;28;20052;-84
2023/09/29 10:50:28;;;;;;;1.50;0.93;;;;;;;27.09;38.44;100847.44;5056045;28;20049;-84
2023/09/29 10:52:54;;;;;;;0.32;0.32;;;;;;;27.45;38.13;100900.91;5063448;28;20040;-84
2023/09/29 10:55:20;;;;;;;1.73;0.80;;;;;;;27.73;38.39;100893.78;5058426;28;20049;-85
2023/09/29 10:57:48;;;;;;;0.20;0.15;;;;;;;27.39;37.83;100782.69;5056384;28;20106;-83
2023/09/29 11:00:15;;;;;;;0.95;0.88;;;;;;;27.68;37.59;100890.50;5036846;28;20373;-84
2023/09/29 11:02:42;;;;;;;22.65;0.95;;;;;;;27.25;37.86;100855.47;5045226;28;20059;-85
2023/09/29 11:05:12;;;;;;;1.90;1.60;;;;;;;27.20;37.82;100852.22;5065865;28;20037;-85
2023/09/29 11:07:49;;;;;;;1.45;0.70;;;;;;;27.26;37.93;100852.69;5048379;28;20210;-85
2023/09/29 11:10:17;;;;;;;0.47;0.47;;;;;;;26.85;38.11;100801.34;5044126;28;20497;-85
2023/09/29 11:12:46;;;;;;;3.40;1.05;;;;;;;27.37;37.98;100870.91;5065527;28;20115;-85
2023/09/29 11:15:13;;;;;;;0.50;0.50;;;;;;;27.17;37.77;100867.56;5066383;28;20170;-85
2023/09/29 11:17:58;;;;;;;0.60;0.50;;;;;;;26.50;37.71;100739.75;5059704;28;20036;-86
2023/09/29 11:20:27;;;;;;;0.30;0.20;;;;;;;27.08;37.81;100853.81;5057633;28;20040;-84
2023/09/29 11:23:07;;;;;;;5.68;1.35;;;;;;;27.24;37.86;100865.38;5060795;28;20343;-84